sensor_id;sensor_type;location;lat;lon;timestamp;temperature;humidity
22153;DHT22;11242;50.536;12.688;2023-04-20T00:01:37;1.90;99.90
22153;DHT22;11242;50.536;12.688;2023-04-20T00:04:03;2.00;99.90
22153;DHT22;11242;50.536;12.688;2023-04-20T00:06:28;2.00;99.90
22153;DHT22;11242;50.536;12.688;2023-04-20T00:08:55;2.00;99.90
22153;DHT22;11242;50.536;12.688;2023-04-20T00:11:21;2.00;99.90
22153;DHT22;11242;50.536;12.688;2023-04-20T00:13:46;2.00;99.90
22153;DHT22;11242;50.536;12.688;2023-04-20T00:16:12;1.90;99.90
22153;DHT22;11242;50.536;12.688;2023-04-20T00:18:37;1.90;99.90
22153;DHT22;11242;50.536;12.688;2023-04-20T00:21:04;2.00;99.90
22153;DHT22;11242;50.536;12.688;2023-04-20T00:23:29;2.00;99.90
22153;DHT22;11242;50.536;12.688;2023-04-20T00:25:55;2.00;99.90
22153;DHT22;11242;50.536;12.688;2023-04-20T00:28:21;2.10;99.90
22153;DHT22;11242;50.536;12.688;2023-04-20T00:30:46;2.10;99.90
22153;DHT22;11242;50.536;12.688;2023-04-20T00:33:12;2.00;99.90
22153;DHT22;11242;50.536;12.688;2023-04-20T00:35:37;2.00;99.90
22153;DHT22;11242;50.536;12.688;2023-04-20T00:38:03;2.00;99.90
22153;DHT22;11242;50.536;12.688;2023-04-20T00:40:28;2.00;99.90
22153;DHT22;11242;50.536;12.688;2023-04-20T00:42:55;2.00;99.90
22153;DHT22;11242;50.536;12.688;2023-04-20T00:45:22;2.10;99.90
22153;DHT22;11242;50.536;12.688;2023-04-20T00:47:47;2.00;99.90
22153;DHT22;11242;50.536;12.688;2023-04-20T00:50:14;2.10;99.90
22153;DHT22;11242;50.536;12.688;2023-04-20T00:52:40;2.10;99.90
22153;DHT22;11242;50.536;12.688;2023-04-20T00:55:06;2.10;99.90
22153;DHT22;11242;50.536;12.688;2023-04-20T00:57:32;2.10;99.90
22153;DHT22;11242;50.536;12.688;2023-04-20T00:59:59;2.10;99.90
22153;DHT22;11242;50.536;12.688;2023-04-20T01:02:25;2.10;99.90
22153;DHT22;11242;50.536;12.688;2023-04-20T01:04:53;2.20;99.90
22153;DHT22;11242;50.536;12.688;2023-04-20T01:07:19;2.10;99.90
22153;DHT22;11242;50.536;12.688;2023-04-20T01:09:44;2.20;99.90
22153;DHT22;11242;50.536;12.688;2023-04-20T01:12:10;2.20;99.90
22153;DHT22;11242;50.536;12.688;2023-04-20T01:14:36;2.30;99.90
22153;DHT22;11242;50.536;12.688;2023-04-20T01:17:01;2.30;99.90
22153;DHT22;11242;50.536;12.688;2023-04-20T01:19:31;2.30;99.90
22153;DHT22;11242;50.536;12.688;2023-04-20T01:21:57;2.40;99.90
22153;DHT22;11242;50.536;12.688;2023-04-20T01:24:22;2.40;99.90
22153;DHT22;11242;50.536;12.688;2023-04-20T01:26:50;2.40;99.90
22153;DHT22;11242;50.536;12.688;2023-04-20T01:29:15;2.50;99.90
22153;DHT22;11242;50.536;12.688;2023-04-20T01:31:41;2.40;99.90
22153;DHT22;11242;50.536;12.688;2023-04-20T01:34:07;2.50;99.90
22153;DHT22;11242;50.536;12.688;2023-04-20T01:36:32;2.50;99.90
22153;DHT22;11242;50.536;12.688;2023-04-20T01:38:59;2.60;99.90
22153;DHT22;11242;50.536;12.688;2023-04-20T01:41:27;2.60;99.90
22153;DHT22;11242;50.536;12.688;2023-04-20T01:43:55;2.50;99.90
22153;DHT22;11242;50.536;12.688;2023-04-20T01:46:20;2.60;99.90
22153;DHT22;11242;50.536;12.688;2023-04-20T01:48:46;2.50;99.90
22153;DHT22;11242;50.536;12.688;2023-04-20T01:51:13;2.50;99.90
22153;DHT22;11242;50.536;12.688;2023-04-20T01:53:39;2.50;99.90
22153;DHT22;11242;50.536;12.688;2023-04-20T01:56:06;2.50;99.90
22153;DHT22;11242;50.536;12.688;2023-04-20T01:58:31;2.50;99.90
22153;DHT22;11242;50.536;12.688;2023-04-20T02:00:57;2.50;99.90
22153;DHT22;11242;50.536;12.688;2023-04-20T02:03:25;2.50;99.90
22153;DHT22;11242;50.536;12.688;2023-04-20T02:05:52;2.50;99.90
22153;DHT22;11242;50.536;12.688;2023-04-20T02:08:18;2.50;99.90
22153;DHT22;11242;50.536;12.688;2023-04-20T02:10:44;2.50;99.90
22153;DHT22;11242;50.536;12.688;2023-04-20T02:13:10;2.50;99.90
22153;DHT22;11242;50.536;12.688;2023-04-20T02:15:36;2.50;99.90
22153;DHT22;11242;50.536;12.688;2023-04-20T02:18:02;2.40;99.90
22153;DHT22;11242;50.536;12.688;2023-04-20T02:20:27;2.40;99.90
22153;DHT22;11242;50.536;12.688;2023-04-20T02:22:53;2.50;99.90
22153;DHT22;11242;50.536;12.688;2023-04-20T02:25:19;2.50;99.90
22153;DHT22;11242;50.536;12.688;2023-04-20T02:27:45;2.40;99.90
22153;DHT22;11242;50.536;12.688;2023-04-20T02:30:11;2.40;99.90
22153;DHT22;11242;50.536;12.688;2023-04-20T02:32:37;2.40;99.90
22153;DHT22;11242;50.536;12.688;2023-04-20T02:35:03;2.40;99.90
22153;DHT22;11242;50.536;12.688;2023-04-20T02:37:29;2.30;99.90
22153;DHT22;11242;50.536;12.688;2023-04-20T02:39:54;2.30;99.90
22153;DHT22;11242;50.536;12.688;2023-04-20T02:42:20;2.30;99.90
22153;DHT22;11242;50.536;12.688;2023-04-20T02:44:47;2.40;99.90
22153;DHT22;11242;50.536;12.688;2023-04-20T02:47:13;2.40;99.90
22153;DHT22;11242;50.536;12.688;2023-04-20T02:49:39;2.30;99.90
22153;DHT22;11242;50.536;12.688;2023-04-20T02:52:05;2.40;99.90
22153;DHT22;11242;50.536;12.688;2023-04-20T02:54:31;2.40;99.90
22153;DHT22;11242;50.536;12.688;2023-04-20T02:56:57;2.40;99.90
22153;DHT22;11242;50.536;12.688;2023-04-20T02:59:23;2.40;99.90
22153;DHT22;11242;50.536;12.688;2023-04-20T03:01:49;2.40;99.90
22153;DHT22;11242;50.536;12.688;2023-04-20T03:04:18;2.40;99.90
22153;DHT22;11242;50.536;12.688;2023-04-20T03:06:59;2.40;99.90
22153;DHT22;11242;50.536;12.688;2023-04-20T03:09:28;2.40;99.90
22153;DHT22;11242;50.536;12.688;2023-04-20T03:12:16;2.40;99.90
22153;DHT22;11242;50.536;12.688;2023-04-20T03:15:04;2.50;99.90
22153;DHT22;11242;50.536;12.688;2023-04-20T03:17:43;2.50;99.90
22153;DHT22;11242;50.536;12.688;2023-04-20T03:20:10;2.50;99.90
22153;DHT22;11242;50.536;12.688;2023-04-20T03:22:36;2.50;99.90
22153;DHT22;11242;50.536;12.688;2023-04-20T03:25:02;2.50;99.90
22153;DHT22;11242;50.536;12.688;2023-04-20T03:27:53;2.40;99.90
22153;DHT22;11242;50.536;12.688;2023-04-20T03:30:20;2.30;99.90
22153;DHT22;11242;50.536;12.688;2023-04-20T03:32:50;2.30;99.90
22153;DHT22;11242;50.536;12.688;2023-04-20T03:35:16;2.20;99.90
22153;DHT22;11242;50.536;12.688;2023-04-20T03:37:42;2.20;99.90
22153;DHT22;11242;50.536;12.688;2023-04-20T03:40:08;2.20;99.90
22153;DHT22;11242;50.536;12.688;2023-04-20T03:42:34;2.20;99.90
22153;DHT22;11242;50.536;12.688;2023-04-20T03:45:01;2.30;99.90
22153;DHT22;11242;50.536;12.688;2023-04-20T03:47:27;2.30;99.90
22153;DHT22;11242;50.536;12.688;2023-04-20T03:49:52;2.30;99.90
22153;DHT22;11242;50.536;12.688;2023-04-20T03:52:18;2.30;99.90
22153;DHT22;11242;50.536;12.688;2023-04-20T03:54:44;2.30;99.90
22153;DHT22;11242;50.536;12.688;2023-04-20T03:57:13;2.20;99.90
22153;DHT22;11242;50.536;12.688;2023-04-20T03:59:39;2.20;99.90
22153;DHT22;11242;50.536;12.688;2023-04-20T04:02:05;2.20;99.90
22153;DHT22;11242;50.536;12.688;2023-04-20T04:04:31;2.20;99.90
22153;DHT22;11242;50.536;12.688;2023-04-20T04:06:57;2.20;99.90
22153;DHT22;11242;50.536;12.688;2023-04-20T04:09:24;2.20;99.90
22153;DHT22;11242;50.536;12.688;2023-04-20T04:11:51;2.20;99.90
22153;DHT22;11242;50.536;12.688;2023-04-20T04:14:17;2.30;99.90
22153;DHT22;11242;50.536;12.688;2023-04-20T04:16:43;2.30;99.90
22153;DHT22;11242;50.536;12.688;2023-04-20T04:19:10;2.10;99.90
22153;DHT22;11242;50.536;12.688;2023-04-20T04:21:36;2.00;99.90
22153;DHT22;11242;50.536;12.688;2023-04-20T04:24:03;1.90;99.90
22153;DHT22;11242;50.536;12.688;2023-04-20T04:26:37;1.70;99.90
22153;DHT22;11242;50.536;12.688;2023-04-20T04:29:02;1.60;99.90
22153;DHT22;11242;50.536;12.688;2023-04-20T04:31:29;1.50;99.90
22153;DHT22;11242;50.536;12.688;2023-04-20T04:34:01;1.50;99.90
22153;DHT22;11242;50.536;12.688;2023-04-20T04:36:42;1.40;99.90
22153;DHT22;11242;50.536;12.688;2023-04-20T04:39:12;1.30;99.90
22153;DHT22;11242;50.536;12.688;2023-04-20T04:41:42;1.20;99.90
22153;DHT22;11242;50.536;12.688;2023-04-20T04:44:21;1.10;99.90
22153;DHT22;11242;50.536;12.688;2023-04-20T04:46:47;1.10;99.90
22153;DHT22;11242;50.536;12.688;2023-04-20T04:49:13;1.00;99.90
22153;DHT22;11242;50.536;12.688;2023-04-20T04:51:39;1.00;99.90
22153;DHT22;11242;50.536;12.688;2023-04-20T04:54:05;0.90;99.90
22153;DHT22;11242;50.536;12.688;2023-04-20T04:56:30;0.90;99.90
22153;DHT22;11242;50.536;12.688;2023-04-20T04:58:56;0.80;99.90
22153;DHT22;11242;50.536;12.688;2023-04-20T05:01:21;0.80;99.90
22153;DHT22;11242;50.536;12.688;2023-04-20T05:03:47;0.70;99.90
22153;DHT22;11242;50.536;12.688;2023-04-20T05:06:12;0.70;99.90
22153;DHT22;11242;50.536;12.688;2023-04-20T05:08:38;0.80;99.90
22153;DHT22;11242;50.536;12.688;2023-04-20T05:11:04;0.70;99.90
22153;DHT22;11242;50.536;12.688;2023-04-20T05:13:29;0.80;99.90
22153;DHT22;11242;50.536;12.688;2023-04-20T05:15:55;0.80;99.90
22153;DHT22;11242;50.536;12.688;2023-04-20T05:18:20;0.90;99.90
22153;DHT22;11242;50.536;12.688;2023-04-20T05:20:46;1.60;99.90
22153;DHT22;11242;50.536;12.688;2023-04-20T05:23:11;3.20;99.90
22153;DHT22;11242;50.536;12.688;2023-04-20T05:25:37;5.10;99.90
22153;DHT22;11242;50.536;12.688;2023-04-20T05:28:03;6.80;99.90
22153;DHT22;11242;50.536;12.688;2023-04-20T05:30:28;8.80;99.90
22153;DHT22;11242;50.536;12.688;2023-04-20T05:32:54;9.70;99.90
22153;DHT22;11242;50.536;12.688;2023-04-20T05:35:20;10.30;99.90
22153;DHT22;11242;50.536;12.688;2023-04-20T05:37:46;10.80;99.90
22153;DHT22;11242;50.536;12.688;2023-04-20T05:40:12;11.10;99.90
22153;DHT22;11242;50.536;12.688;2023-04-20T05:42:37;11.40;99.90
22153;DHT22;11242;50.536;12.688;2023-04-20T05:45:03;12.20;99.90
22153;DHT22;11242;50.536;12.688;2023-04-20T05:47:29;13.40;99.90
22153;DHT22;11242;50.536;12.688;2023-04-20T05:49:54;13.60;99.90
22153;DHT22;11242;50.536;12.688;2023-04-20T05:52:20;14.00;99.90
22153;DHT22;11242;50.536;12.688;2023-04-20T05:54:46;15.20;97.40
22153;DHT22;11242;50.536;12.688;2023-04-20T05:57:12;14.90;94.90
22153;DHT22;11242;50.536;12.688;2023-04-20T05:59:37;15.60;92.70
22153;DHT22;11242;50.536;12.688;2023-04-20T06:02:03;15.90;90.90
22153;DHT22;11242;50.536;12.688;2023-04-20T06:04:29;15.60;90.30
22153;DHT22;11242;50.536;12.688;2023-04-20T06:06:54;16.30;85.60
22153;DHT22;11242;50.536;12.688;2023-04-20T06:09:20;16.40;81.50
22153;DHT22;11242;50.536;12.688;2023-04-20T06:11:46;16.50;79.00
22153;DHT22;11242;50.536;12.688;2023-04-20T06:14:11;16.80;78.80
22153;DHT22;11242;50.536;12.688;2023-04-20T06:16:39;16.90;73.80
22153;DHT22;11242;50.536;12.688;2023-04-20T06:19:05;16.20;74.90
22153;DHT22;11242;50.536;12.688;2023-04-20T06:21:33;16.30;76.20
22153;DHT22;11242;50.536;12.688;2023-04-20T06:23:58;16.90;74.00
22153;DHT22;11242;50.536;12.688;2023-04-20T06:26:24;16.00;72.70
22153;DHT22;11242;50.536;12.688;2023-04-20T06:28:50;16.10;74.70
22153;DHT22;11242;50.536;12.688;2023-04-20T06:31:18;17.10;71.10
22153;DHT22;11242;50.536;12.688;2023-04-20T06:33:43;16.90;68.00
22153;DHT22;11242;50.536;12.688;2023-04-20T06:36:09;15.30;73.20
22153;DHT22;11242;50.536;12.688;2023-04-20T06:38:35;15.50;74.10
22153;DHT22;11242;50.536;12.688;2023-04-20T06:41:00;15.60;70.40
22153;DHT22;11242;50.536;12.688;2023-04-20T06:43:27;16.40;69.30
22153;DHT22;11242;50.536;12.688;2023-04-20T06:45:53;14.80;71.70
22153;DHT22;11242;50.536;12.688;2023-04-20T06:48:18;15.00;72.90
22153;DHT22;11242;50.536;12.688;2023-04-20T06:50:47;14.40;73.80
22153;DHT22;11242;50.536;12.688;2023-04-20T06:53:13;14.30;76.10
22153;DHT22;11242;50.536;12.688;2023-04-20T06:55:39;15.40;74.40
22153;DHT22;11242;50.536;12.688;2023-04-20T06:58:05;14.60;72.30
22153;DHT22;11242;50.536;12.688;2023-04-20T07:00:30;13.70;74.70
22153;DHT22;11242;50.536;12.688;2023-04-20T07:02:56;12.90;77.90
22153;DHT22;11242;50.536;12.688;2023-04-20T07:05:22;13.30;76.40
22153;DHT22;11242;50.536;12.688;2023-04-20T07:07:48;13.30;77.10
22153;DHT22;11242;50.536;12.688;2023-04-20T07:10:15;12.80;78.50
22153;DHT22;11242;50.536;12.688;2023-04-20T07:12:41;12.00;80.30
22153;DHT22;11242;50.536;12.688;2023-04-20T07:15:07;12.20;81.50
22153;DHT22;11242;50.536;12.688;2023-04-20T07:17:34;12.10;81.60
22153;DHT22;11242;50.536;12.688;2023-04-20T07:20:00;11.20;83.10
22153;DHT22;11242;50.536;12.688;2023-04-20T07:22:32;11.30;83.70
22153;DHT22;11242;50.536;12.688;2023-04-20T07:25:02;12.50;83.40
22153;DHT22;11242;50.536;12.688;2023-04-20T07:27:29;14.70;78.30
22153;DHT22;11242;50.536;12.688;2023-04-20T07:29:56;15.70;73.40
22153;DHT22;11242;50.536;12.688;2023-04-20T07:32:22;16.30;71.10
22153;DHT22;11242;50.536;12.688;2023-04-20T07:34:48;15.70;69.60
22153;DHT22;11242;50.536;12.688;2023-04-20T07:37:13;13.10;75.90
22153;DHT22;11242;50.536;12.688;2023-04-20T07:39:39;12.60;79.70
22153;DHT22;11242;50.536;12.688;2023-04-20T07:42:05;11.90;81.80
22153;DHT22;11242;50.536;12.688;2023-04-20T07:44:30;10.40;84.90
22153;DHT22;11242;50.536;12.688;2023-04-20T07:46:56;9.10;91.40
22153;DHT22;11242;50.536;12.688;2023-04-20T07:49:23;9.40;93.50
22153;DHT22;11242;50.536;12.688;2023-04-20T07:51:48;9.30;94.60
22153;DHT22;11242;50.536;12.688;2023-04-20T07:54:14;9.80;97.00
22153;DHT22;11242;50.536;12.688;2023-04-20T07:56:40;10.20;96.00
22153;DHT22;11242;50.536;12.688;2023-04-20T07:59:05;10.30;94.20
22153;DHT22;11242;50.536;12.688;2023-04-20T08:01:31;10.30;94.50
22153;DHT22;11242;50.536;12.688;2023-04-20T08:03:57;10.50;95.00
22153;DHT22;11242;50.536;12.688;2023-04-20T08:06:22;11.30;93.90
22153;DHT22;11242;50.536;12.688;2023-04-20T08:08:48;11.50;92.80
22153;DHT22;11242;50.536;12.688;2023-04-20T08:11:13;13.60;91.20
22153;DHT22;11242;50.536;12.688;2023-04-20T08:13:40;14.40;83.80
22153;DHT22;11242;50.536;12.688;2023-04-20T08:16:05;13.10;84.40
22153;DHT22;11242;50.536;12.688;2023-04-20T08:18:31;12.30;88.70
22153;DHT22;11242;50.536;12.688;2023-04-20T08:20:57;11.90;89.60
22153;DHT22;11242;50.536;12.688;2023-04-20T08:23:22;11.60;90.10
22153;DHT22;11242;50.536;12.688;2023-04-20T08:25:55;10.50;91.80
22153;DHT22;11242;50.536;12.688;2023-04-20T08:28:24;9.40;98.20
22153;DHT22;11242;50.536;12.688;2023-04-20T08:30:50;9.40;99.90
22153;DHT22;11242;50.536;12.688;2023-04-20T08:33:16;10.30;99.80
22153;DHT22;11242;50.536;12.688;2023-04-20T08:35:42;11.30;97.20
22153;DHT22;11242;50.536;12.688;2023-04-20T08:38:08;11.50;95.10
22153;DHT22;11242;50.536;12.688;2023-04-20T08:40:35;12.30;93.00
22153;DHT22;11242;50.536;12.688;2023-04-20T08:43:00;12.10;91.30
22153;DHT22;11242;50.536;12.688;2023-04-20T08:45:27;12.40;92.60
22153;DHT22;11242;50.536;12.688;2023-04-20T08:47:53;12.70;90.40
22153;DHT22;11242;50.536;12.688;2023-04-20T08:50:19;12.10;90.50
22153;DHT22;11242;50.536;12.688;2023-04-20T08:52:45;11.50;91.20
22153;DHT22;11242;50.536;12.688;2023-04-20T08:55:15;12.70;91.50
22153;DHT22;11242;50.536;12.688;2023-04-20T08:57:41;13.50;86.40
22153;DHT22;11242;50.536;12.688;2023-04-20T09:00:07;13.10;87.60
22153;DHT22;11242;50.536;12.688;2023-04-20T09:02:36;13.30;87.30
22153;DHT22;11242;50.536;12.688;2023-04-20T09:05:04;11.30;89.40
22153;DHT22;11242;50.536;12.688;2023-04-20T09:07:30;10.50;91.90
22153;DHT22;11242;50.536;12.688;2023-04-20T09:09:57;10.10;93.20
22153;DHT22;11242;50.536;12.688;2023-04-20T09:12:24;9.80;93.20
22153;DHT22;11242;50.536;12.688;2023-04-20T09:14:50;9.60;93.80
22153;DHT22;11242;50.536;12.688;2023-04-20T09:17:17;9.40;95.50
22153;DHT22;11242;50.536;12.688;2023-04-20T09:19:44;9.50;95.60
22153;DHT22;11242;50.536;12.688;2023-04-20T09:22:10;9.60;95.30
22153;DHT22;11242;50.536;12.688;2023-04-20T09:24:37;9.10;95.50
22153;DHT22;11242;50.536;12.688;2023-04-20T09:27:14;9.10;96.00
22153;DHT22;11242;50.536;12.688;2023-04-20T09:29:40;8.70;96.90
22153;DHT22;11242;50.536;12.688;2023-04-20T09:32:05;8.60;99.30
22153;DHT22;11242;50.536;12.688;2023-04-20T09:34:41;8.40;99.90
22153;DHT22;11242;50.536;12.688;2023-04-20T09:37:08;8.20;99.90
22153;DHT22;11242;50.536;12.688;2023-04-20T09:39:36;7.90;99.90
22153;DHT22;11242;50.536;12.688;2023-04-20T09:42:06;8.20;99.90
22153;DHT22;11242;50.536;12.688;2023-04-20T09:44:32;8.60;99.90
22153;DHT22;11242;50.536;12.688;2023-04-20T09:46:58;8.90;99.90
22153;DHT22;11242;50.536;12.688;2023-04-20T09:49:24;9.10;99.90
22153;DHT22;11242;50.536;12.688;2023-04-20T09:51:50;9.30;99.90
22153;DHT22;11242;50.536;12.688;2023-04-20T09:54:16;9.30;99.90
22153;DHT22;11242;50.536;12.688;2023-04-20T09:56:42;9.50;99.90
22153;DHT22;11242;50.536;12.688;2023-04-20T09:59:08;8.90;99.90
22153;DHT22;11242;50.536;12.688;2023-04-20T10:01:34;8.50;99.90
22153;DHT22;11242;50.536;12.688;2023-04-20T10:04:01;8.40;99.90
22153;DHT22;11242;50.536;12.688;2023-04-20T10:06:32;8.30;99.90
22153;DHT22;11242;50.536;12.688;2023-04-20T10:09:01;8.30;99.90
22153;DHT22;11242;50.536;12.688;2023-04-20T10:11:38;7.90;99.90
22153;DHT22;11242;50.536;12.688;2023-04-20T10:14:18;7.80;99.90
22153;DHT22;11242;50.536;12.688;2023-04-20T10:16:45;7.80;99.90
22153;DHT22;11242;50.536;12.688;2023-04-20T10:19:11;7.80;99.90
22153;DHT22;11242;50.536;12.688;2023-04-20T10:21:48;8.00;99.90
22153;DHT22;11242;50.536;12.688;2023-04-20T10:24:14;8.30;99.90
22153;DHT22;11242;50.536;12.688;2023-04-20T10:26:44;8.20;99.90
22153;DHT22;11242;50.536;12.688;2023-04-20T10:29:21;8.10;99.90
22153;DHT22;11242;50.536;12.688;2023-04-20T10:31:48;7.90;99.90
22153;DHT22;11242;50.536;12.688;2023-04-20T10:34:14;7.80;99.90
22153;DHT22;11242;50.536;12.688;2023-04-20T10:36:40;7.70;99.90
22153;DHT22;11242;50.536;12.688;2023-04-20T10:39:17;7.80;99.90
22153;DHT22;11242;50.536;12.688;2023-04-20T10:41:57;7.70;99.90
22153;DHT22;11242;50.536;12.688;2023-04-20T10:44:23;7.80;99.90
22153;DHT22;11242;50.536;12.688;2023-04-20T10:46:49;7.80;99.90
22153;DHT22;11242;50.536;12.688;2023-04-20T10:49:15;7.90;99.90
22153;DHT22;11242;50.536;12.688;2023-04-20T10:51:51;8.00;99.90
22153;DHT22;11242;50.536;12.688;2023-04-20T10:54:18;8.30;99.90
22153;DHT22;11242;50.536;12.688;2023-04-20T10:59:14;8.50;99.90
22153;DHT22;11242;50.536;12.688;2023-04-20T11:01:40;8.20;99.90
22153;DHT22;11242;50.536;12.688;2023-04-20T11:04:07;8.00;99.90
22153;DHT22;11242;50.536;12.688;2023-04-20T11:06:36;7.80;99.90
22153;DHT22;11242;50.536;12.688;2023-04-20T11:09:02;8.00;99.90
22153;DHT22;11242;50.536;12.688;2023-04-20T11:11:28;8.30;99.90
22153;DHT22;11242;50.536;12.688;2023-04-20T11:14:10;8.60;99.90
22153;DHT22;11242;50.536;12.688;2023-04-20T11:16:37;8.90;99.90
22153;DHT22;11242;50.536;12.688;2023-04-20T11:19:03;9.10;99.90
22153;DHT22;11242;50.536;12.688;2023-04-20T11:21:36;9.20;99.90
22153;DHT22;11242;50.536;12.688;2023-04-20T11:24:03;8.90;99.90
22153;DHT22;11242;50.536;12.688;2023-04-20T11:26:36;9.00;99.90
22153;DHT22;11242;50.536;12.688;2023-04-20T11:29:02;8.70;99.90
22153;DHT22;11242;50.536;12.688;2023-04-20T11:31:28;8.50;99.90
22153;DHT22;11242;50.536;12.688;2023-04-20T11:33:54;8.80;99.90
22153;DHT22;11242;50.536;12.688;2023-04-20T11:36:21;9.30;99.90
22153;DHT22;11242;50.536;12.688;2023-04-20T11:38:47;9.80;99.90
22153;DHT22;11242;50.536;12.688;2023-04-20T11:41:12;10.20;99.90
22153;DHT22;11242;50.536;12.688;2023-04-20T11:43:38;10.50;99.90
22153;DHT22;11242;50.536;12.688;2023-04-20T11:46:12;10.40;99.90
22153;DHT22;11242;50.536;12.688;2023-04-20T11:48:38;9.80;99.90
22153;DHT22;11242;50.536;12.688;2023-04-20T11:51:04;9.60;99.90
22153;DHT22;11242;50.536;12.688;2023-04-20T11:53:30;9.50;99.90
22153;DHT22;11242;50.536;12.688;2023-04-20T11:55:55;9.80;99.90
22153;DHT22;11242;50.536;12.688;2023-04-20T11:58:21;10.00;99.90
22153;DHT22;11242;50.536;12.688;2023-04-20T12:00:47;9.30;99.90
22153;DHT22;11242;50.536;12.688;2023-04-20T12:03:12;9.30;99.90
22153;DHT22;11242;50.536;12.688;2023-04-20T12:05:38;9.50;99.90
22153;DHT22;11242;50.536;12.688;2023-04-20T12:08:04;9.70;99.90
22153;DHT22;11242;50.536;12.688;2023-04-20T12:10:30;10.20;99.90
22153;DHT22;11242;50.536;12.688;2023-04-20T12:12:56;10.30;99.90
22153;DHT22;11242;50.536;12.688;2023-04-20T12:15:21;10.10;99.90
22153;DHT22;11242;50.536;12.688;2023-04-20T12:17:47;10.00;99.90
22153;DHT22;11242;50.536;12.688;2023-04-20T12:20:13;9.90;99.90
22153;DHT22;11242;50.536;12.688;2023-04-20T12:22:38;9.80;99.90
22153;DHT22;11242;50.536;12.688;2023-04-20T12:25:05;9.60;99.90
22153;DHT22;11242;50.536;12.688;2023-04-20T12:27:31;9.50;99.90
22153;DHT22;11242;50.536;12.688;2023-04-20T12:29:56;9.80;99.90
22153;DHT22;11242;50.536;12.688;2023-04-20T12:32:22;10.00;99.90
22153;DHT22;11242;50.536;12.688;2023-04-20T12:34:47;10.00;99.90
22153;DHT22;11242;50.536;12.688;2023-04-20T12:37:13;9.90;99.90
22153;DHT22;11242;50.536;12.688;2023-04-20T12:39:39;9.80;99.90
22153;DHT22;11242;50.536;12.688;2023-04-20T12:42:05;9.80;99.90
22153;DHT22;11242;50.536;12.688;2023-04-20T12:44:30;9.60;99.90
22153;DHT22;11242;50.536;12.688;2023-04-20T12:46:56;9.80;99.90
22153;DHT22;11242;50.536;12.688;2023-04-20T12:49:21;10.00;99.90
22153;DHT22;11242;50.536;12.688;2023-04-20T12:51:47;10.20;99.90
22153;DHT22;11242;50.536;12.688;2023-04-20T12:54:12;10.20;99.90
22153;DHT22;11242;50.536;12.688;2023-04-20T12:56:38;10.10;99.90
22153;DHT22;11242;50.536;12.688;2023-04-20T12:59:03;10.20;99.90
22153;DHT22;11242;50.536;12.688;2023-04-20T13:01:29;10.30;99.90
22153;DHT22;11242;50.536;12.688;2023-04-20T13:03:55;9.80;99.90
22153;DHT22;11242;50.536;12.688;2023-04-20T13:06:20;9.70;99.90
22153;DHT22;11242;50.536;12.688;2023-04-20T13:08:46;9.70;99.90
22153;DHT22;11242;50.536;12.688;2023-04-20T13:11:12;9.90;99.90
22153;DHT22;11242;50.536;12.688;2023-04-20T13:13:40;10.10;99.90
22153;DHT22;11242;50.536;12.688;2023-04-20T13:16:06;10.00;99.90
22153;DHT22;11242;50.536;12.688;2023-04-20T13:18:32;9.70;99.90
22153;DHT22;11242;50.536;12.688;2023-04-20T13:20:57;9.80;99.90
22153;DHT22;11242;50.536;12.688;2023-04-20T13:23:23;10.50;99.90
22153;DHT22;11242;50.536;12.688;2023-04-20T13:25:49;10.50;99.90
22153;DHT22;11242;50.536;12.688;2023-04-20T13:28:16;10.30;99.90
22153;DHT22;11242;50.536;12.688;2023-04-20T13:30:41;10.80;99.90
22153;DHT22;11242;50.536;12.688;2023-04-20T13:33:07;10.90;99.90
22153;DHT22;11242;50.536;12.688;2023-04-20T13:35:32;10.70;99.90
22153;DHT22;11242;50.536;12.688;2023-04-20T13:37:58;10.70;99.90
22153;DHT22;11242;50.536;12.688;2023-04-20T13:40:24;10.50;99.90
22153;DHT22;11242;50.536;12.688;2023-04-20T13:42:50;10.30;99.90
22153;DHT22;11242;50.536;12.688;2023-04-20T13:45:16;10.20;99.90
22153;DHT22;11242;50.536;12.688;2023-04-20T13:47:42;10.10;99.90
22153;DHT22;11242;50.536;12.688;2023-04-20T13:50:08;9.90;99.90
22153;DHT22;11242;50.536;12.688;2023-04-20T13:52:34;9.70;99.90
22153;DHT22;11242;50.536;12.688;2023-04-20T13:54:59;9.30;99.90
22153;DHT22;11242;50.536;12.688;2023-04-20T13:57:25;9.20;99.90
22153;DHT22;11242;50.536;12.688;2023-04-20T13:59:51;9.00;99.90
22153;DHT22;11242;50.536;12.688;2023-04-20T14:02:17;9.10;99.90
22153;DHT22;11242;50.536;12.688;2023-04-20T14:04:42;9.40;99.90
22153;DHT22;11242;50.536;12.688;2023-04-20T14:07:08;9.30;99.90
22153;DHT22;11242;50.536;12.688;2023-04-20T14:09:33;9.40;99.90
22153;DHT22;11242;50.536;12.688;2023-04-20T14:11:59;9.60;99.90
22153;DHT22;11242;50.536;12.688;2023-04-20T14:14:25;9.70;99.90
22153;DHT22;11242;50.536;12.688;2023-04-20T14:16:51;9.80;99.90
22153;DHT22;11242;50.536;12.688;2023-04-20T14:19:17;9.80;99.90
22153;DHT22;11242;50.536;12.688;2023-04-20T14:21:42;9.60;99.90
22153;DHT22;11242;50.536;12.688;2023-04-20T14:24:12;9.60;99.90
22153;DHT22;11242;50.536;12.688;2023-04-20T14:26:38;9.30;99.90
22153;DHT22;11242;50.536;12.688;2023-04-20T14:29:04;9.40;99.90
22153;DHT22;11242;50.536;12.688;2023-04-20T14:31:30;9.00;99.90
22153;DHT22;11242;50.536;12.688;2023-04-20T14:33:56;9.00;99.90
22153;DHT22;11242;50.536;12.688;2023-04-20T14:36:22;9.00;99.90
22153;DHT22;11242;50.536;12.688;2023-04-20T14:38:48;9.00;99.90
22153;DHT22;11242;50.536;12.688;2023-04-20T14:41:16;9.10;99.90
22153;DHT22;11242;50.536;12.688;2023-04-20T14:43:42;8.90;99.90
22153;DHT22;11242;50.536;12.688;2023-04-20T14:46:07;9.20;99.90
22153;DHT22;11242;50.536;12.688;2023-04-20T14:48:33;9.40;99.90
22153;DHT22;11242;50.536;12.688;2023-04-20T14:51:00;9.40;99.90
22153;DHT22;11242;50.536;12.688;2023-04-20T14:53:25;8.90;99.90
22153;DHT22;11242;50.536;12.688;2023-04-20T14:55:51;9.00;99.90
22153;DHT22;11242;50.536;12.688;2023-04-20T14:58:18;9.30;99.90
22153;DHT22;11242;50.536;12.688;2023-04-20T15:00:44;9.00;99.90
22153;DHT22;11242;50.536;12.688;2023-04-20T15:03:11;8.90;99.90
22153;DHT22;11242;50.536;12.688;2023-04-20T15:05:36;8.80;99.90
22153;DHT22;11242;50.536;12.688;2023-04-20T15:08:02;8.70;99.90
22153;DHT22;11242;50.536;12.688;2023-04-20T15:10:27;8.80;99.90
22153;DHT22;11242;50.536;12.688;2023-04-20T15:12:53;8.70;99.90
22153;DHT22;11242;50.536;12.688;2023-04-20T15:15:18;8.90;99.90
22153;DHT22;11242;50.536;12.688;2023-04-20T15:17:44;8.80;99.90
22153;DHT22;11242;50.536;12.688;2023-04-20T15:20:11;8.80;99.90
22153;DHT22;11242;50.536;12.688;2023-04-20T15:22:39;8.80;99.90
22153;DHT22;11242;50.536;12.688;2023-04-20T15:25:05;9.00;99.90
22153;DHT22;11242;50.536;12.688;2023-04-20T15:27:31;9.20;99.90